Time;durP1;ratioP1;P1;durP2;ratioP2;P2;SDS_P1;SDS_P2;PMS_P1;PMS_P2;Temp;Humidity;BMP_temperature;BMP_pressure;BME280_temperature;BME280_humidity;BME280_pressure;Samples;Min_cycle;Max_cycle;Signal;HPM_P1;HPM_P2
2021/09/04 00:01:25;;;;;;;;;;;;;;;16.65;100.00;99601.97;5053122;28;19932;-77
2021/09/04 00:03:52;;;;;;;;;;;;;;;16.65;100.00;99607.63;5053305;28;19925;-78
2021/09/04 00:06:20;;;;;;;;;;;;;;;16.60;100.00;99599.75;5068495;28;20050;-78
2021/09/04 00:08:47;;;;;;;;;;;;;;;16.38;100.00;99610.06;5085472;28;19978;-78
2021/09/04 00:11:14;;;;;;;;;;;;;;;16.45;100.00;99602.22;5068599;28;19925;-78
2021/09/04 00:13:41;;;;;;;;;;;;;;;16.53;100.00;99594.31;5085489;28;19933;-78
2021/09/04 00:16:10;;;;;;;;;;;;;;;16.22;100.00;99608.91;5085147;28;20345;-78
2021/09/04 00:18:37;;;;;;;;;;;;;;;16.03;100.00;99607.09;5068660;28;19928;-78
2021/09/04 00:21:04;;;;;;;;;;;;;;;16.27;100.00;99610.41;5068812;28;19925;-78
2021/09/04 00:23:34;;;;;;;;;;;;;;;16.46;100.00;99595.34;5068715;28;19933;-78
2021/09/04 00:26:06;;;;;;;;;;;;;;;16.54;100.00;99610.03;5067677;28;20018;-77
2021/09/04 00:28:32;;;;;;;;;;;;;;;16.43;100.00;99601.84;5085334;28;19924;-77
2021/09/04 00:31:00;;;;;;;;;;;;;;;16.42;100.00;99599.50;5051832;28;19925;-77
2021/09/04 00:33:27;;;;;;;;;;;;;;;16.34;100.00;99584.00;5068583;28;19931;-78
2021/09/04 00:35:54;;;;;;;;;;;;;;;16.33;100.00;99588.09;5083912;28;20372;-78
2021/09/04 00:38:21;;;;;;;;;;;;;;;16.33;100.00;99585.25;5084990;28;20032;-78
2021/09/04 00:40:48;;;;;;;;;;;;;;;16.35;100.00;99588.41;5051163;28;19998;-78
2021/09/04 00:43:15;;;;;;;;;;;;;;;16.31;100.00;99584.91;5068032;28;19956;-77
2021/09/04 00:45:42;;;;;;;;;;;;;;;16.27;100.00;99580.19;5068330;28;20003;-78
2021/09/04 00:48:09;;;;;;;;;;;;;;;16.24;100.00;99583.91;5068526;28;19975;-78
2021/09/04 00:50:37;;;;;;;;;;;;;;;16.23;100.00;99573.06;5051761;28;20306;-78
2021/09/04 00:53:04;;;;;;;;;;;;;;;16.01;100.00;99570.09;5054127;28;19979;-77
2021/09/04 00:55:32;;;;;;;;;;;;;;;16.03;100.00;99573.25;5071935;28;20444;-78
2021/09/04 00:57:59;;;;;;;;;;;;;;;16.03;100.00;99564.81;5056890;28;20310;-78
2021/09/04 01:00:26;;;;;;;;;;;;;;;15.83;100.00;99569.81;5056601;28;20015;-78
2021/09/04 01:02:54;;;;;;;;;;;;;;;15.48;100.00;99558.78;5056628;28;19924;-78
2021/09/04 01:05:21;;;;;;;;;;;;;;;15.47;100.00;99574.88;5055388;28;19924;-78
2021/09/04 01:07:48;;;;;;;;;;;;;;;15.78;100.00;99567.56;5056487;28;19929;-78
2021/09/04 01:10:17;;;;;;;;;;;;;;;15.66;100.00;99568.31;5056480;28;19951;-78
2021/09/04 01:12:45;;;;;;;;;;;;;;;15.81;100.00;99558.22;5080715;28;20051;-78
2021/09/04 01:15:12;;;;;;;;;;;;;;;15.84;100.00;99560.13;5055944;28;19952;-77
2021/09/04 01:17:40;;;;;;;;;;;;;;;15.63;100.00;99560.75;5087903;28;19928;-78
2021/09/04 01:20:08;;;;;;;;;;;;;;;15.69;100.00;99558.19;5042202;28;19932;-78
2021/09/04 01:22:35;;;;;;;;;;;;;;;15.78;100.00;99559.09;5038586;28;20396;-78
2021/09/04 01:25:05;;;;;;;;;;;;;;;15.83;100.00;99569.03;5054894;28;19974;-78
2021/09/04 01:27:34;;;;;;;;;;;;;;;15.91;100.00;99568.41;5088776;28;19931;-78
2021/09/04 01:30:02;;;;;;;;;;;;;;;15.92;100.00;99564.31;5071228;28;20558;-78
2021/09/04 01:32:31;;;;;;;;;;;;;;;15.91;100.00;99557.13;5071397;28;19925;-78
2021/09/04 01:35:07;;;;;;;;;;;;;;;15.73;100.00;99564.50;5054872;28;19932;-77
2021/09/04 01:37:37;;;;;;;;;;;;;;;15.75;100.00;99557.19;5054916;28;20346;-78
2021/09/04 01:40:10;;;;;;;;;;;;;;;15.18;100.00;99561.97;5055981;28;20460;-78
2021/09/04 01:42:37;;;;;;;;;;;;;;;15.02;100.00;99564.81;5056089;28;19968;-78
2021/09/04 01:45:05;;;;;;;;;;;;;;;15.36;100.00;99557.47;5055718;28;20357;-78
2021/09/04 01:47:32;;;;;;;;;;;;;;;15.42;100.00;99566.22;5054633;28;20103;-78
2021/09/04 01:49:59;;;;;;;;;;;;;;;15.36;100.00;99562.28;5055809;28;20420;-78
2021/09/04 01:52:27;;;;;;;;;;;;;;;15.63;100.00;99562.78;5087718;28;20019;-78
2021/09/04 01:54:54;;;;;;;;;;;;;;;15.68;100.00;99563.03;5055698;28;19932;-78
2021/09/04 01:57:21;;;;;;;;;;;;;;;15.81;100.00;99552.56;5087601;28;19925;-78
2021/09/04 01:59:48;;;;;;;;;;;;;;;15.92;100.00;99561.50;5054423;28;19924;-78
2021/09/04 02:02:15;;;;;;;;;;;;;;;15.90;100.00;99549.13;5087739;28;19948;-78
2021/09/04 02:04:42;;;;;;;;;;;;;;;15.88;100.00;99557.22;5087460;28;20368;-78
2021/09/04 02:07:09;;;;;;;;;;;;;;;15.71;100.00;99552.88;5087682;28;20568;-77
2021/09/04 02:09:36;;;;;;;;;;;;;;;15.85;100.00;99544.81;5055614;28;19932;-78
2021/09/04 02:12:03;;;;;;;;;;;;;;;15.86;100.00;99546.41;5055116;28;20430;-78
2021/09/04 02:14:30;;;;;;;;;;;;;;;15.95;100.00;99540.88;5070833;28;19947;-78
2021/09/04 02:16:58;;;;;;;;;;;;;;;16.03;100.00;99550.72;5087516;28;20015;-78
2021/09/04 02:19:26;;;;;;;;;;;;;;;16.05;100.00;99542.59;5070256;28;20360;-78
2021/09/04 02:21:53;;;;;;;;;;;;;;;16.07;100.00;99530.84;5055043;28;19929;-78
2021/09/04 02:24:20;;;;;;;;;;;;;;;15.98;100.00;99531.53;5087128;28;20027;-78
2021/09/04 02:26:48;;;;;;;;;;;;;;;16.03;100.00;99535.81;5054923;28;19966;-78
2021/09/04 02:29:16;;;;;;;;;;;;;;;15.89;100.00;99539.84;5053990;28;19925;-78
2021/09/04 02:31:43;;;;;;;;;;;;;;;15.96;100.00;99534.00;5055068;28;19968;-78
2021/09/04 02:34:11;;;;;;;;;;;;;;;16.04;100.00;99537.38;5087068;28;19925;-78
2021/09/04 02:36:40;;;;;;;;;;;;;;;16.08;100.00;99535.28;5053346;28;20466;-78
2021/09/04 02:39:09;;;;;;;;;;;;;;;16.03;100.00;99533.81;5054826;28;19925;-78
2021/09/04 02:41:38;;;;;;;;;;;;;;;16.17;100.00;99530.56;5054446;28;19928;-78
2021/09/04 02:44:06;;;;;;;;;;;;;;;16.22;100.00;99540.47;5053852;28;19964;-77
2021/09/04 02:46:33;;;;;;;;;;;;;;;16.27;100.00;99531.44;5054273;28;19964;-78
2021/09/04 02:49:02;;;;;;;;;;;;;;;16.13;100.00;99538.31;5054764;28;20005;-77
2021/09/04 02:51:30;;;;;;;;;;;;;;;16.20;100.00;99529.66;5054400;28;19924;-78
2021/09/04 02:53:58;;;;;;;;;;;;;;;16.30;100.00;99524.13;5054375;28;19951;-78
2021/09/04 02:56:25;;;;;;;;;;;;;;;16.39;100.00;99521.41;5054460;28;20249;-79
2021/09/04 02:58:52;;;;;;;;;;;;;;;16.49;100.00;99515.47;5069926;28;19928;-78
2021/09/04 03:01:20;;;;;;;;;;;;;;;16.46;100.00;99519.19;5069432;28;19929;-78
2021/09/04 03:03:48;;;;;;;;;;;;;;;16.24;100.00;99519.03;5069726;28;19931;-78
2021/09/04 03:06:16;;;;;;;;;;;;;;;16.24;100.00;99516.22;5069729;28;20015;-78
2021/09/04 03:08:43;;;;;;;;;;;;;;;16.25;100.00;99512.16;5053006;28;20477;-78
2021/09/04 03:11:12;;;;;;;;;;;;;;;16.28;100.00;99507.66;5068969;28;19935;-78
2021/09/04 03:13:40;;;;;;;;;;;;;;;16.22;100.00;99507.41;5052865;28;19936;-78
2021/09/04 03:16:08;;;;;;;;;;;;;;;16.07;100.00;99517.56;5085685;28;19929;-77
2021/09/04 03:18:36;;;;;;;;;;;;;;;16.10;100.00;99513.84;5053982;28;19975;-77
2021/09/04 03:21:03;;;;;;;;;;;;;;;16.03;100.00;99505.63;5053707;28;20384;-78
2021/09/04 03:23:31;;;;;;;;;;;;;;;16.01;100.00;99499.63;5052999;28;20012;-78
2021/09/04 03:26:00;;;;;;;;;;;;;;;16.03;100.00;99508.44;5052553;28;19979;-78
2021/09/04 03:28:27;;;;;;;;;;;;;;;16.00;100.00;99512.16;5085750;28;20272;-77
2021/09/04 03:30:55;;;;;;;;;;;;;;;16.11;100.00;99506.19;5053708;28;19971;-78
2021/09/04 03:33:22;;;;;;;;;;;;;;;16.20;100.00;99503.47;5053746;28;19948;-78
2021/09/04 03:35:49;;;;;;;;;;;;;;;16.25;100.00;99506.53;5053811;28;19931;-78
2021/09/04 03:38:16;;;;;;;;;;;;;;;15.98;100.00;99497.72;5069241;28;19970;-78
2021/09/04 03:40:44;;;;;;;;;;;;;;;16.17;100.00;99496.72;5053478;28;20021;-78
2021/09/04 03:43:11;;;;;;;;;;;;;;;16.13;100.00;99498.03;5054935;28;19929;-77
2021/09/04 03:45:38;;;;;;;;;;;;;;;16.21;100.00;99500.22;5056016;28;19931;-79
2021/09/04 03:48:05;;;;;;;;;;;;;;;16.35;100.00;99498.16;5071481;28;19996;-79
2021/09/04 03:50:44;;;;;;;;;;;;;;;16.48;100.00;99487.72;5083982;28;19913;-79
2021/09/04 03:53:13;;;;;;;;;;;;;;;16.55;100.00;99487.47;5069953;28;20273;-79
2021/09/04 03:55:42;;;;;;;;;;;;;;;16.55;100.00;99490.28;5069547;28;19931;-79
2021/09/04 03:58:09;;;;;;;;;;;;;;;16.59;100.00;99490.94;5070452;28;20405;-82
2021/09/04 04:00:36;;;;;;;;;;;;;;;16.54;100.00;99488.72;5078040;28;19929;-80
2021/09/04 04:03:04;;;;;;;;;;;;;;;16.57;100.00;99485.00;5071013;28;19929;-80
2021/09/04 04:05:31;;;;;;;;;;;;;;;16.66;100.00;99485.09;5070161;28;19924;-80
2021/09/04 04:07:59;;;;;;;;;;;;;;;16.42;100.00;99486.69;5069393;28;19972;-80
2021/09/04 04:10:26;;;;;;;;;;;;;;;16.40;100.00;99489.16;5069370;28;19928;-80
2021/09/04 04:12:55;;;;;;;;;;;;;;;16.41;100.00;99485.06;5052901;28;19929;-80
2021/09/04 04:15:23;;;;;;;;;;;;;;;16.50;100.00;99493.66;5069313;28;19929;-80
2021/09/04 04:17:51;;;;;;;;;;;;;;;16.60;100.00;99492.53;5082074;28;19970;-80
2021/09/04 04:20:19;;;;;;;;;;;;;;;16.56;100.00;99486.22;5085830;28;19970;-80
2021/09/04 04:22:49;;;;;;;;;;;;;;;16.68;100.00;99488.22;5068986;28;19966;-80
2021/09/04 04:25:16;;;;;;;;;;;;;;;16.58;100.00;99492.19;5069196;28;19951;-80
2021/09/04 04:27:44;;;;;;;;;;;;;;;16.47;100.00;99494.56;5052634;28;19934;-80
2021/09/04 04:30:11;;;;;;;;;;;;;;;16.47;100.00;99489.72;5052426;28;19924;-80
2021/09/04 04:32:39;;;;;;;;;;;;;;;16.43;100.00;99488.25;5068693;28;19933;-80
2021/09/04 04:35:08;;;;;;;;;;;;;;;16.50;100.00;99488.03;5070223;28;20329;-80
2021/09/04 04:37:37;;;;;;;;;;;;;;;16.27;100.00;99487.13;5101644;28;19924;-81
2021/09/04 04:40:06;;;;;;;;;;;;;;;16.39;100.00;99488.34;5068542;28;19929;-80
2021/09/04 04:42:34;;;;;;;;;;;;;;;16.55;100.00;99484.66;5069754;28;20291;-80
2021/09/04 04:45:03;;;;;;;;;;;;;;;16.54;100.00;99480.25;5102293;28;19924;-80
2021/09/04 04:47:32;;;;;;;;;;;;;;;16.49;100.00;99492.09;5069658;28;20400;-80
2021/09/04 04:49:59;;;;;;;;;;;;;;;16.40;100.00;99491.97;5067998;28;19925;-80
2021/09/04 04:52:26;;;;;;;;;;;;;;;16.39;100.00;99487.59;5069495;28;19929;-80
2021/09/04 04:54:54;;;;;;;;;;;;;;;16.16;100.00;99486.66;5069883;28;19982;-80
2021/09/04 04:57:22;;;;;;;;;;;;;;;16.36;100.00;99494.13;5068480;28;19947;-80
2021/09/04 04:59:48;;;;;;;;;;;;;;;16.32;100.00;99488.59;5085155;28;19925;-81
2021/09/04 05:02:16;;;;;;;;;;;;;;;16.39;100.00;99490.41;5054863;28;19928;-81
2021/09/04 05:04:44;;;;;;;;;;;;;;;16.41;100.00;99493.53;5055152;28;19995;-81
2021/09/04 05:07:12;;;;;;;;;;;;;;;16.51;100.00;99498.84;5088246;28;20020;-80
2021/09/04 05:09:39;;;;;;;;;;;;;;;16.55;100.00;99490.28;5088637;28;19929;-81
2021/09/04 05:12:06;;;;;;;;;;;;;;;16.33;100.00;99497.84;5056307;28;19990;-80
2021/09/04 05:14:33;;;;;;;;;;;;;;;16.26;100.00;99484.75;5088724;28;19928;-81
2021/09/04 05:17:00;;;;;;;;;;;;;;;16.16;100.00;99483.84;5038635;28;19925;-80
2021/09/04 05:19:30;;;;;;;;;;;;;;;16.17;100.00;99482.63;5055166;28;19925;-80
2021/09/04 05:21:57;;;;;;;;;;;;;;;16.15;100.00;99492.75;5038204;28;19924;-80
2021/09/04 05:24:25;;;;;;;;;;;;;;;16.25;100.00;99492.41;5054685;28;20375;-80
2021/09/04 05:26:53;;;;;;;;;;;;;;;16.11;100.00;99489.28;5088159;28;20283;-80
2021/09/04 05:29:20;;;;;;;;;;;;;;;16.11;100.00;99490.03;5055703;28;20003;-80
2021/09/04 05:31:47;;;;;;;;;;;;;;;16.08;100.00;99496.59;5056109;28;19947;-80
2021/09/04 05:34:14;;;;;;;;;;;;;;;16.15;100.00;99492.75;5054621;28;19925;-80
2021/09/04 05:36:41;;;;;;;;;;;;;;;16.18;100.00;99498.28;5054405;28;19982;-80
2021/09/04 05:39:08;;;;;;;;;;;;;;;16.31;100.00;99491.88;5054592;28;19960;-80
2021/09/04 05:41:35;;;;;;;;;;;;;;;16.27;100.00;99496.84;5054566;28;19925;-80
2021/09/04 05:44:03;;;;;;;;;;;;;;;16.30;100.00;99496.69;5054322;28;19974;-80
2021/09/04 05:46:30;;;;;;;;;;;;;;;16.36;100.00;99499.75;5020346;28;20394;-80
2021/09/04 05:48:57;;;;;;;;;;;;;;;16.18;100.00;99505.94;5037586;28;19929;-80
2021/09/04 05:51:24;;;;;;;;;;;;;;;16.33;100.00;99509.13;5054122;28;19931;-80
2021/09/04 05:53:51;;;;;;;;;;;;;;;16.27;100.00;99498.41;5055501;28;19947;-80
2021/09/04 05:56:18;;;;;;;;;;;;;;;16.15;100.00;99502.00;5071048;28;19925;-80
2021/09/04 05:58:45;;;;;;;;;;;;;;;15.99;100.00;99507.72;5055456;28;19929;-80
2021/09/04 06:01:12;;;;;;;;;;;;;;;15.83;100.00;99507.03;5055547;28;19994;-80
2021/09/04 06:03:39;;;;;;;;;;;;;;;15.90;100.00;99510.44;5054091;28;20401;-80
2021/09/04 06:06:06;;;;;;;;;;;;;;;15.56;100.00;99512.28;5054005;28;19971;-80
2021/09/04 06:08:33;;;;;;;;;;;;;;;16.08;100.00;99518.38;5053976;28;19928;-80
2021/09/04 06:11:00;;;;;;;;;;;;;;;16.40;100.00;99515.34;5053940;28;19925;-80
2021/09/04 06:13:27;;;;;;;;;;;;;;;16.44;100.00;99507.56;5052764;28;20402;-80
2021/09/04 06:15:54;;;;;;;;;;;;;;;16.48;100.00;99499.00;5055258;28;20400;-80
2021/09/04 06:18:21;;;;;;;;;;;;;;;16.51;100.00;99498.09;5053738;28;19931;-80
2021/09/04 06:20:48;;;;;;;;;;;;;;;16.57;100.00;99490.63;5070166;28;19924;-80
2021/09/04 06:23:15;;;;;;;;;;;;;;;16.71;100.00;99495.78;5053842;28;19929;-80
2021/09/04 06:25:42;;;;;;;;;;;;;;;16.84;100.00;99496.56;5070360;28;20039;-80
2021/09/04 06:28:09;;;;;;;;;;;;;;;16.94;100.00;99495.38;5053432;28;20288;-80
2021/09/04 06:30:36;;;;;;;;;;;;;;;16.98;100.00;99490.44;5053194;28;19932;-80
2021/09/04 06:33:03;;;;;;;;;;;;;;;17.08;100.00;99492.06;5053461;28;19975;-80
2021/09/04 06:35:30;;;;;;;;;;;;;;;16.99;100.00;99483.53;5053452;28;19925;-79
2021/09/04 06:37:57;;;;;;;;;;;;;;;17.03;100.00;99481.34;5054179;28;20429;-80
2021/09/04 06:40:25;;;;;;;;;;;;;;;16.98;100.00;99479.13;5048841;28;19978;-80
2021/09/04 06:42:52;;;;;;;;;;;;;;;16.83;100.00;99492.13;5054900;28;19929;-81
2021/09/04 06:45:18;;;;;;;;;;;;;;;16.78;100.00;99498.38;5036974;28;19960;-81
2021/09/04 06:47:45;;;;;;;;;;;;;;;16.76;100.00;99489.56;5054728;28;19994;-81
2021/09/04 06:50:12;;;;;;;;;;;;;;;16.76;100.00;99496.00;5020742;28;19924;-81
2021/09/04 06:52:40;;;;;;;;;;;;;;;16.97;100.00;99500.13;5053774;28;20004;-81
2021/09/04 06:55:08;;;;;;;;;;;;;;;17.07;100.00;99499.75;5054379;28;19978;-78
2021/09/04 06:57:35;;;;;;;;;;;;;;;17.08;100.00;99495.69;5045615;28;20387;-79
2021/09/04 07:00:05;;;;;;;;;;;;;;;16.89;100.00;99496.00;5074612;28;20381;-79
2021/09/04 07:02:32;;;;;;;;;;;;;;;16.87;100.00;99495.66;5035717;28;19931;-79
2021/09/04 07:04:59;;;;;;;;;;;;;;;16.96;100.00;99493.72;5053398;28;19956;-79
2021/09/04 07:07:26;;;;;;;;;;;;;;;16.99;100.00;99492.78;5052166;28;20304;-79
2021/09/04 07:09:53;;;;;;;;;;;;;;;17.13;100.00;99497.91;5050692;28;19947;-79
2021/09/04 07:12:20;;;;;;;;;;;;;;;16.76;100.00;99489.56;5051763;28;19987;-79
2021/09/04 07:14:47;;;;;;;;;;;;;;;17.00;100.00;99504.84;5053577;28;19932;-79
2021/09/04 07:17:14;;;;;;;;;;;;;;;16.65;100.00;99494.78;5054274;28;20300;-79
2021/09/04 07:19:41;;;;;;;;;;;;;;;16.83;100.00;99506.25;5050292;28;20364;-79
2021/09/04 07:22:08;;;;;;;;;;;;;;;16.79;100.00;99511.22;5052244;28;19929;-80
2021/09/04 07:24:35;;;;;;;;;;;;;;;16.68;100.00;99507.97;5052274;28;19924;-83
2021/09/04 07:27:05;;;;;;;;;;;;;;;16.77;100.00;99516.53;5034972;28;19924;-82
2021/09/04 07:29:38;;;;;;;;;;;;;;;16.28;100.00;99516.13;5064339;28;20019;-82
2021/09/04 07:32:05;;;;;;;;;;;;;;;16.22;100.00;99524.34;5059751;28;20350;-82
2021/09/04 07:34:33;;;;;;;;;;;;;;;16.79;100.00;99522.53;5052715;28;19929;-82
2021/09/04 07:37:01;;;;;;;;;;;;;;;17.03;100.00;99520.88;5034732;28;19940;-84
2021/09/04 07:39:28;;;;;;;;;;;;;;;16.96;100.00;99515.50;5051728;28;19964;-87
2021/09/04 07:41:56;;;;;;;;;;;;;;;17.22;100.00;99511.34;5022493;28;19994;-86
2021/09/04 07:44:23;;;;;;;;;;;;;;;17.05;100.00;99515.56;5051463;28;20372;-84
2021/09/04 07:46:50;;;;;;;;;;;;;;;17.06;100.00;99509.47;5054447;28;20299;-86
2021/09/04 07:49:17;;;;;;;;;;;;;;;17.01;100.00;99512.09;5051435;28;20028;-86
2021/09/04 07:51:44;;;;;;;;;;;;;;;17.10;100.00;99517.81;5049603;28;20286;-83
2021/09/04 07:54:11;;;;;;;;;;;;;;;17.17;100.00;99521.19;5043722;28;20024;-81
2021/09/04 07:56:38;;;;;;;;;;;;;;;17.05;100.00;99519.19;5052148;28;19932;-80
2021/09/04 07:59:07;;;;;;;;;;;;;;;16.89;100.00;99518.56;5053290;28;19929;-80
2021/09/04 08:01:35;;;;;;;;;;;;;;;17.15;100.00;99517.22;5052800;28;19932;-80
2021/09/04 08:04:02;;;;;;;;;;;;;;;17.25;100.00;99514.03;5053621;28;20024;-80
2021/09/04 08:06:29;;;;;;;;;;;;;;;17.36;100.00;99516.47;5053181;28;19975;-80
2021/09/04 08:08:56;;;;;;;;;;;;;;;17.43;100.00;99513.41;5047248;28;19925;-80
2021/09/04 08:11:23;;;;;;;;;;;;;;;17.39;100.00;99512.72;5045103;28;19925;-80
2021/09/04 08:13:50;;;;;;;;;;;;;;;17.40;100.00;99512.25;5052987;28;19983;-85
2021/09/04 08:16:17;;;;;;;;;;;;;;;17.39;100.00;99515.53;5042515;28;20324;-81
2021/09/04 08:18:44;;;;;;;;;;;;;;;17.44;100.00;99517.81;5047729;28;19925;-80
2021/09/04 08:21:17;;;;;;;;;;;;;;;17.60;100.00;99514.78;5081299;28;19935;-80
2021/09/04 08:23:54;;;;;;;;;;;;;;;17.62;100.00;99515.13;5042794;28;19925;-81
2021/09/04 08:26:56;;;;;;;;;;;;;;;17.28;100.00;99527.22;5078119;28;19925;-86
2021/09/04 08:29:30;;;;;;;;;;;;;;;17.58;100.00;99531.44;5048984;28;19925;-85
2021/09/04 08:32:18;;;;;;;;;;;;;;;17.50;100.00;99521.63;5024443;28;20019;-85
2021/09/04 08:34:45;;;;;;;;;;;;;;;17.54;100.00;99528.72;5035524;28;19957;-86
2021/09/04 08:37:14;;;;;;;;;;;;;;;17.47;100.00;99531.03;5028998;28;20015;-87
2021/09/04 08:39:41;;;;;;;;;;;;;;;17.47;100.00;99525.38;5052434;28;20434;-87
2021/09/04 08:42:09;;;;;;;;;;;;;;;17.66;100.00;99524.28;5072368;28;20028;-86
2021/09/04 08:44:36;;;;;;;;;;;;;;;17.56;100.00;99525.44;5036816;28;19932;-86
2021/09/04 08:47:04;;;;;;;;;;;;;;;17.44;100.00;99534.78;5056405;28;19989;-85
2021/09/04 08:49:35;;;;;;;;;;;;;;;17.62;100.00;99530.06;5021104;28;20012;-85
2021/09/04 08:52:05;;;;;;;;;;;;;;;17.69;100.00;99521.31;5023168;28;20300;-86
2021/09/04 08:54:32;;;;;;;;;;;;;;;17.57;100.00;99527.00;5051401;28;19925;-85
2021/09/04 08:56:59;;;;;;;;;;;;;;;17.42;100.00;99532.38;5053397;28;19925;-87
2021/09/04 08:59:26;;;;;;;;;;;;;;;17.74;100.00;99537.69;5021978;28;19932;-79
2021/09/04 09:01:53;;;;;;;;;;;;;;;17.78;100.00;99534.72;5055075;28;19924;-79
2021/09/04 09:04:22;;;;;;;;;;;;;;;17.69;100.00;99535.44;5038594;28;19932;-80
2021/09/04 09:06:49;;;;;;;;;;;;;;;17.65;100.00;99531.16;5054693;28;20011;-80
2021/09/04 09:09:18;;;;;;;;;;;;;;;17.75;100.00;99533.59;5055033;28;19960;-80
2021/09/04 09:11:48;;;;;;;;;;;;;;;17.88;100.00;99533.53;5055833;28;19986;-80
2021/09/04 09:14:15;;;;;;;;;;;;;;;17.82;100.00;99538.19;5054411;28;19967;-80
2021/09/04 09:16:52;;;;;;;;;;;;;;;17.97;100.00;99542.06;5048243;28;19924;-80
2021/09/04 09:19:21;;;;;;;;;;;;;;;18.18;100.00;99546.09;5052714;28;20268;-80
2021/09/04 09:21:48;;;;;;;;;;;;;;;17.96;100.00;99549.75;5054626;28;19925;-80
2021/09/04 09:24:17;;;;;;;;;;;;;;;17.89;100.00;99538.72;5055303;28;19972;-80
2021/09/04 09:26:44;;;;;;;;;;;;;;;17.79;100.00;99539.91;5056205;28;19925;-80
2021/09/04 09:29:16;;;;;;;;;;;;;;;17.83;100.00;99540.56;5055735;28;19925;-80
2021/09/04 09:31:43;;;;;;;;;;;;;;;17.98;100.00;99541.59;5042944;28;19924;-80
2021/09/04 09:34:10;;;;;;;;;;;;;;;17.92;100.00;99542.66;5054640;28;19925;-80
2021/09/04 09:36:48;;;;;;;;;;;;;;;17.85;100.00;99552.22;5048629;28;20015;-81
2021/09/04 09:39:16;;;;;;;;;;;;;;;18.01;100.00;99551.19;5046328;28;20011;-81
2021/09/04 09:41:49;;;;;;;;;;;;;;;18.06;100.00;99547.78;5051522;28;19925;-81
2021/09/04 09:44:24;;;;;;;;;;;;;;;18.13;100.00;99536.19;5052636;28;19935;-80
2021/09/04 09:46:54;;;;;;;;;;;;;;;18.17;100.00;99541.69;5053958;28;20008;-79
2021/09/04 09:49:28;;;;;;;;;;;;;;;18.14;100.00;99534.94;5045051;28;19925;-79
2021/09/04 09:52:05;;;;;;;;;;;;;;;18.26;100.00;99538.91;5069835;28;19928;-80
2021/09/04 09:54:35;;;;;;;;;;;;;;;18.32;100.00;99532.19;5055650;28;19925;-80
2021/09/04 09:57:04;;;;;;;;;;;;;;;18.36;100.00;99538.50;5055284;28;19986;-81
2021/09/04 09:59:36;;;;;;;;;;;;;;;17.92;100.00;99534.16;5054137;28;19925;-82
2021/09/04 10:02:08;;;;;;;;;;;;;;;18.22;100.00;99526.97;5005388;28;19925;-81
2021/09/04 10:04:36;;;;;;;;;;;;;;;18.51;100.00;99533.88;5054786;28;19925;-83
2021/09/04 10:07:18;;;;;;;;;;;;;;;18.53;100.00;99530.56;5037638;28;19951;-81
2021/09/04 10:09:52;;;;;;;;;;;;;;;18.64;100.00;99531.72;5043919;28;19958;-82
2021/09/04 10:12:21;;;;;;;;;;;;;;;18.84;100.00;99522.81;5087683;28;19971;-82
2021/09/04 10:14:51;;;;;;;;;;;;;;;18.79;100.00;99521.41;5046407;28;20367;-91
2021/09/04 10:17:20;;;;;;;;;;;;;;;18.70;100.00;99521.38;5021298;28;19935;-92
2021/09/04 10:19:49;;;;;;;;;;;;;;;18.61;100.00;99509.22;5017902;28;20437;-92
2021/09/04 10:22:16;;;;;;;;;;;;;;;18.71;100.00;99519.31;5018403;28;19960;-92
2021/09/04 10:24:54;;;;;;;;;;;;;;;18.87;100.00;99519.81;5024478;28;19925;-91
2021/09/04 10:27:30;;;;;;;;;;;;;;;19.03;100.00;99519.56;5019266;28;19948;-90
2021/09/04 10:29:57;;;;;;;;;;;;;;;19.28;100.00;99519.28;5054092;28;19925;-79
2021/09/04 10:32:24;;;;;;;;;;;;;;;19.49;100.00;99511.91;5054279;28;19925;-80
2021/09/04 10:35:03;;;;;;;;;;;;;;;19.43;100.00;99506.06;5052102;28;19924;-79
2021/09/04 10:37:30;;;;;;;;;;;;;;;19.42;100.00;99506.53;5054168;28;19929;-79
2021/09/04 10:39:59;;;;;;;;;;;;;;;19.09;100.00;99503.50;5053028;28;20279;-79
2021/09/04 10:42:26;;;;;;;;;;;;;;;19.39;100.00;99508.28;5053109;28;19932;-80
2021/09/04 10:44:58;;;;;;;;;;;;;;;19.37;100.00;99505.13;5052841;28;20015;-79
2021/09/04 10:47:25;;;;;;;;;;;;;;;18.92;100.00;99502.22;5034315;28;20307;-79
2021/09/04 10:50:20;;;;;;;;;;;;;;;18.92;100.00;99493.72;5045533;28;19925;-80
2021/09/04 10:52:50;;;;;;;;;;;;;;;18.97;100.00;99495.94;5054736;28;19929;-80
2021/09/04 10:55:27;;;;;;;;;;;;;;;18.94;100.00;99499.72;5053735;28;19932;-79
2021/09/04 10:58:03;;;;;;;;;;;;;;;19.11;100.00;99497.38;5052548;28;19929;-79
2021/09/04 11:00:34;;;;;;;;;;;;;;;18.98;100.00;99496.72;5085775;28;19978;-79
2021/09/04 11:03:03;;;;;;;;;;;;;;;18.83;100.00;99495.75;5053830;28;20360;-79
2021/09/04 11:05:36;;;;;;;;;;;;;;;19.00;100.00;99497.84;5053843;28;19960;-79
2021/09/04 11:08:05;;;;;;;;;;;;;;;18.90;100.00;99496.22;5052569;28;19931;-79
2021/09/04 11:10:33;;;;;;;;;;;;;;;18.71;100.00;99502.31;5068779;28;19979;-80
2021/09/04 11:13:06;;;;;;;;;;;;;;;18.51;100.00;99499.91;5054103;28;19924;-81
2021/09/04 11:15:36;;;;;;;;;;;;;;;18.72;100.00;99498.25;5052270;28;19925;-80
2021/09/04 11:18:05;;;;;;;;;;;;;;;18.41;100.00;99501.16;5049693;28;19964;-81
2021/09/04 11:20:32;;;;;;;;;;;;;;;18.42;100.00;99491.41;5048091;28;19932;-82
2021/09/04 11:22:59;;;;;;;;;;;;;;;18.27;100.00;99493.19;5052587;28;19932;-81
2021/09/04 11:25:26;;;;;;;;;;;;;;;17.97;100.00;99499.66;5052781;28;20356;-81
2021/09/04 11:27:53;;;;;;;;;;;;;;;18.46;100.00;99497.72;5052377;28;19932;-82
2021/09/04 11:30:20;;;;;;;;;;;;;;;18.93;100.00;99492.47;5067756;28;20400;-82
2021/09/04 11:32:47;;;;;;;;;;;;;;;19.10;100.00;99485.25;5067618;28;20334;-82
2021/09/04 11:35:16;;;;;;;;;;;;;;;19.27;100.00;99483.72;5050443;28;20364;-82
2021/09/04 11:37:44;;;;;;;;;;;;;;;19.31;100.00;99478.66;5067224;28;20295;-81
2021/09/04 11:40:13;;;;;;;;;;;;;;;19.60;100.00;99473.28;5052388;28;20341;-82
2021/09/04 11:42:49;;;;;;;;;;;;;;;19.58;100.00;99472.97;5068129;28;19960;-82
2021/09/04 11:45:19;;;;;;;;;;;;;;;19.67;100.00;99466.53;5047522;28;19924;-82
2021/09/04 11:47:47;;;;;;;;;;;;;;;19.60;100.00;99461.94;5052141;28;19932;-82
2021/09/04 11:50:21;;;;;;;;;;;;;;;19.52;100.00;99466.38;5034334;28;20016;-82
2021/09/04 11:52:49;;;;;;;;;;;;;;;20.00;100.00;99463.75;5042274;28;19925;-82
2021/09/04 11:55:17;;;;;;;;;;;;;;;20.18;100.00;99461.66;5084276;28;19968;-82
2021/09/04 11:57:56;;;;;;;;;;;;;;;19.21;100.00;99468.56;5052191;28;20016;-80
2021/09/04 12:00:33;;;;;;;;;;;;;;;19.52;100.00;99460.69;5052007;28;19936;-80
2021/09/04 12:03:05;;;;;;;;;;;;;;;19.92;100.00;99462.53;5050733;28;19982;-80
2021/09/04 12:05:33;;;;;;;;;;;;;;;20.26;100.00;99456.44;5050827;28;19925;-80
2021/09/04 12:08:01;;;;;;;;;;;;;;;20.15;100.00;99450.47;5084268;28;19925;-80
2021/09/04 12:10:29;;;;;;;;;;;;;;;20.33;100.00;99451.19;5051064;28;19925;-80
2021/09/04 12:12:57;;;;;;;;;;;;;;;20.36;100.00;99449.44;5056206;28;19924;-80
2021/09/04 12:15:26;;;;;;;;;;;;;;;20.13;100.00;99448.13;5054657;28;19924;-80
2021/09/04 12:18:01;;;;;;;;;;;;;;;20.10;100.00;99443.38;5054939;28;19960;-80
2021/09/04 12:20:33;;;;;;;;;;;;;;;19.89;100.00;99447.22;5055783;28;20006;-80
2021/09/04 12:23:18;;;;;;;;;;;;;;;19.66;100.00;99447.91;5054389;28;19940;-80
2021/09/04 12:25:46;;;;;;;;;;;;;;;19.53;100.00;99445.28;5056062;28;19932;-80
2021/09/04 12:28:20;;;;;;;;;;;;;;;19.88;100.00;99442.03;5057480;28;19963;-80
2021/09/04 12:30:55;;;;;;;;;;;;;;;19.68;100.00;99451.06;5054673;28;20015;-80
2021/09/04 12:33:22;;;;;;;;;;;;;;;19.80;100.00;99450.09;5054793;28;19990;-80
2021/09/04 12:35:49;;;;;;;;;;;;;;;19.73;100.00;99446.81;5055262;28;19975;-80
2021/09/04 12:38:17;;;;;;;;;;;;;;;20.21;100.00;99442.88;5055518;28;20007;-80
2021/09/04 12:41:00;;;;;;;;;;;;;;;20.43;100.00;99444.19;5056360;28;19932;-79
2021/09/04 12:43:27;;;;;;;;;;;;;;;20.54;100.00;99433.09;5055967;28;19947;-79